Etusivu
METAR-TAF:

METAR-TAF

Lentoasemat :

Anguilla, Anguilla

Leveyspiiri: 18-12-17N, Pituuspiiri: 063-03-18W, korkeus merenpinnasta: 31 m

Tämänhetkinen sää

Tämä raportti tehtiin 3 tuntia ja 4 minuuttia sitten, kello 00.00 UTC
Tuuli 13 kn idästä
Lämpötila 26°C
Kosteus 70%
Ilmanpaine 1014 hPa
Näkyvyys 10 km tai enemmän
Muutamia pilviä 1900 ft:n korkeudessa

METAR: TQPF 140000Z 09013KT 9999 FEW019 26/20 Q1014

Aika: 23:04 (03:04 UTC)

Sääennuste

Tämä raportti tehtiin 4 tuntia ja 4 minuuttia sitten, kello 23.00 UTC
Ennuste voimassa 14. päivästä klo 00 UTC - 14. päivään klo 24 UTC
Tuuli 14 kn idästä
Näkyvyys 10 km tai enemmän
Hajanaisia pilviä 1700 ft:n korkeudessa

TAF: TQPF 132300Z 1400/1424 09014KT 9999 SCT017

Säähavainnot ja -ennusteet yli 4000 lentoasemalta (METAR- ja TAF-raportit).

Käytössä olevat sääasemat on merkitty karttaan keltaisilla ja punaisilla pisteillä.

Aseta hiiri pisteen päälle nähdäksesi sääaseman nimen.

Klikkaa sitten nähdäksesi säähavainnot ja -ennusteet.

Kartan vaihtaminen: klikkaa mustalla rastilla varustettuja vihreitä pisteitä, niin voit zoomata sisään; viivalla varustettua vihreää pistettä, niin voit zoomata ulos tai vihreitä nuolia, niin pääset viereisille kartoille.


METAR-TAF: